createdAt,value
2022-10-03T00:01:05.000Z,279.34
2022-10-03T00:02:32.000Z,279.34
2022-10-03T00:04:38.000Z,279.21
2022-10-03T00:06:04.000Z,279.27
2022-10-03T00:08:10.000Z,279.34
2022-10-03T00:09:37.000Z,279.27
2022-10-03T00:11:43.000Z,279.15
2022-10-03T00:13:09.000Z,279.15
2022-10-03T00:15:16.000Z,279.15
2022-10-03T00:16:42.000Z,279.09
2022-10-03T00:18:48.000Z,279.02
2022-10-03T00:20:15.000Z,279.02
2022-10-03T00:22:21.000Z,278.96
2022-10-03T00:25:12.000Z,278.9
2022-10-03T00:26:38.000Z,278.9
2022-10-03T00:28:45.000Z,278.9
2022-10-03T00:30:11.000Z,278.84
2022-10-03T00:32:17.000Z,278.84
2022-10-03T00:33:44.000Z,278.84
2022-10-03T00:35:50.000Z,278.84
2022-10-03T00:37:16.000Z,278.9
2022-10-03T00:39:22.000Z,278.84
2022-10-03T00:40:49.000Z,278.84
2022-10-03T00:42:55.000Z,278.84
2022-10-03T00:44:21.000Z,278.84
2022-10-03T00:46:28.000Z,278.9
2022-10-03T00:47:54.000Z,278.84
2022-10-03T00:50:00.000Z,278.84
2022-10-03T00:51:27.000Z,278.84
2022-10-03T00:53:33.000Z,278.71
2022-10-03T00:54:59.000Z,278.71
2022-10-03T00:57:05.000Z,278.65
2022-10-03T00:58:32.000Z,278.65
2022-10-03T01:00:38.000Z,278.59
2022-10-03T01:03:29.000Z,278.52
2022-10-03T01:04:56.000Z,278.52
2022-10-03T01:07:02.000Z,278.46
2022-10-03T01:08:28.000Z,278.52
2022-10-03T01:10:35.000Z,278.52
2022-10-03T01:12:01.000Z,278.52
2022-10-03T01:14:07.000Z,278.46
2022-10-03T01:15:34.000Z,278.46
2022-10-03T01:17:40.000Z,278.4
2022-10-03T01:19:06.000Z,278.34
2022-10-03T01:21:12.000Z,278.4
2022-10-03T01:22:39.000Z,278.34
2022-10-03T01:24:45.000Z,278.34
2022-10-03T01:26:11.000Z,278.34
2022-10-03T01:28:17.000Z,278.21
2022-10-03T01:29:44.000Z,278.27
2022-10-03T01:31:50.000Z,278.27
2022-10-03T01:33:17.000Z,278.27
2022-10-03T01:35:23.000Z,278.27
2022-10-03T01:36:49.000Z,278.27
2022-10-03T01:38:56.000Z,278.27
2022-10-03T01:41:47.000Z,278.27
2022-10-03T01:43:13.000Z,278.27
2022-10-03T01:45:19.000Z,278.27
2022-10-03T01:46:46.000Z,278.21
2022-10-03T01:48:52.000Z,278.21
2022-10-03T01:50:18.000Z,278.21
2022-10-03T01:52:25.000Z,278.27
2022-10-03T01:53:51.000Z,278.27
2022-10-03T01:55:57.000Z,278.21
2022-10-03T01:57:24.000Z,278.21
2022-10-03T01:59:30.000Z,278.21
2022-10-03T02:00:56.000Z,278.21
2022-10-03T02:03:02.000Z,278.15
2022-10-03T02:04:29.000Z,278.15
2022-10-03T02:06:35.000Z,278.15
2022-10-03T02:08:02.000Z,278.15
2022-10-03T02:10:08.000Z,278.15
2022-10-03T02:11:34.000Z,278.09
2022-10-03T02:13:41.000Z,278.09
2022-10-03T02:15:07.000Z,278.09
2022-10-03T02:17:13.000Z,278.02
2022-10-03T02:20:05.000Z,277.96
2022-10-03T02:21:31.000Z,277.96
2022-10-03T02:23:37.000Z,277.96
2022-10-03T02:25:04.000Z,277.96
2022-10-03T02:27:10.000Z,277.9
2022-10-03T02:28:37.000Z,277.84
2022-10-03T02:30:43.000Z,277.9
2022-10-03T02:32:09.000Z,277.84
2022-10-03T02:34:15.000Z,277.84
2022-10-03T02:35:42.000Z,277.77
2022-10-03T02:37:48.000Z,277.9
2022-10-03T02:39:14.000Z,277.84
2022-10-03T02:41:20.000Z,277.84
2022-10-03T02:42:47.000Z,277.77
2022-10-03T02:44:53.000Z,277.59
2022-10-03T02:46:20.000Z,277.65
2022-10-03T02:48:26.000Z,277.52
2022-10-03T02:49:57.000Z,277.59
2022-10-03T02:52:03.000Z,277.52
2022-10-03T02:53:29.000Z,277.46
2022-10-03T02:55:35.000Z,277.46
2022-10-03T02:58:26.000Z,277.4
2022-10-03T02:59:53.000Z,277.46
2022-10-03T03:01:59.000Z,277.4
2022-10-03T03:03:26.000Z,277.4
2022-10-03T03:05:32.000Z,277.4
2022-10-03T03:06:58.000Z,277.34
2022-10-03T03:09:05.000Z,277.34
2022-10-03T03:10:31.000Z,277.46
2022-10-03T03:12:37.000Z,277.4
2022-10-03T03:14:06.000Z,277.4
2022-10-03T03:16:12.000Z,277.4
2022-10-03T03:17:38.000Z,277.27
2022-10-03T03:19:45.000Z,277.34
2022-10-03T03:21:11.000Z,277.34
2022-10-03T03:23:17.000Z,277.34
2022-10-03T03:24:44.000Z,277.34
2022-10-03T03:26:50.000Z,277.34
2022-10-03T03:28:16.000Z,277.34
2022-10-03T03:30:23.000Z,277.34
2022-10-03T03:31:49.000Z,277.34
2022-10-03T03:33:55.000Z,277.21
2022-10-03T03:36:46.000Z,277.15
2022-10-03T03:38:13.000Z,277.15
2022-10-03T03:40:19.000Z,277.15
2022-10-03T03:41:46.000Z,277.15
2022-10-03T03:43:52.000Z,277.21
2022-10-03T03:45:18.000Z,277.27
2022-10-03T03:47:25.000Z,277.4
2022-10-03T03:48:51.000Z,277.46
2022-10-03T03:50:57.000Z,277.46
2022-10-03T03:52:24.000Z,277.4
2022-10-03T03:54:30.000Z,277.46
2022-10-03T03:55:56.000Z,277.52
2022-10-03T03:58:02.000Z,277.4
2022-10-03T03:59:29.000Z,277.4
2022-10-03T04:01:35.000Z,277.27
2022-10-03T04:03:02.000Z,277.15
2022-10-03T04:05:08.000Z,277.21
2022-10-03T04:06:35.000Z,277.15
2022-10-03T04:08:41.000Z,277.27
2022-10-03T04:10:07.000Z,277.21
2022-10-03T04:12:13.000Z,277.15
2022-10-03T04:15:04.000Z,277.15
2022-10-03T04:16:31.000Z,277.15
2022-10-03T04:18:37.000Z,277.02
2022-10-03T04:20:03.000Z,277.02
2022-10-03T04:22:09.000Z,277.02
2022-10-03T04:23:36.000Z,277.02
2022-10-03T04:25:42.000Z,277.02
2022-10-03T04:27:09.000Z,277.09
2022-10-03T04:29:15.000Z,277.09
2022-10-03T04:30:41.000Z,277.09
2022-10-03T04:32:47.000Z,277.09
2022-10-03T04:34:14.000Z,277.02
2022-10-03T04:36:20.000Z,277.02
2022-10-03T04:37:47.000Z,276.96
2022-10-03T04:39:53.000Z,276.9
2022-10-03T04:41:19.000Z,276.9
2022-10-03T04:43:25.000Z,276.84
2022-10-03T04:44:52.000Z,276.9
2022-10-03T04:46:58.000Z,276.77
2022-10-03T04:48:25.000Z,276.77
2022-10-03T04:50:31.000Z,276.71
2022-10-03T04:53:22.000Z,276.77
2022-10-03T04:54:48.000Z,276.84
2022-10-03T04:56:54.000Z,276.84
2022-10-03T04:58:21.000Z,276.84
2022-10-03T05:00:27.000Z,276.9
2022-10-03T05:01:54.000Z,276.96
2022-10-03T05:04:00.000Z,277.09
2022-10-03T05:05:26.000Z,277.15
2022-10-03T05:07:32.000Z,277.09
2022-10-03T05:08:59.000Z,277.09
2022-10-03T05:11:05.000Z,276.9
2022-10-03T05:12:31.000Z,276.9
2022-10-03T05:14:38.000Z,276.96
2022-10-03T05:16:04.000Z,276.96
2022-10-03T05:18:10.000Z,276.96
2022-10-03T05:19:37.000Z,277.02
2022-10-03T05:21:43.000Z,277.02
2022-10-03T05:23:10.000Z,277.02
2022-10-03T05:25:16.000Z,276.96
2022-10-03T05:26:42.000Z,277.02
2022-10-03T05:28:50.000Z,277.02
2022-10-03T05:31:41.000Z,277.02
2022-10-03T05:33:08.000Z,277.09
2022-10-03T05:35:14.000Z,277.09
2022-10-03T05:36:41.000Z,277.09
2022-10-03T05:38:47.000Z,277.15
2022-10-03T05:40:13.000Z,277.15
2022-10-03T05:42:19.000Z,277.15
2022-10-03T05:43:48.000Z,277.15
2022-10-03T05:45:54.000Z,277.15
2022-10-03T05:47:21.000Z,277.15
2022-10-03T05:49:27.000Z,277.15
2022-10-03T05:50:53.000Z,277.15
2022-10-03T05:52:59.000Z,277.15
2022-10-03T05:54:26.000Z,277.15
2022-10-03T05:56:32.000Z,277.15
2022-10-03T05:58:05.000Z,277.15
2022-10-03T06:00:11.000Z,277.21
2022-10-03T06:01:37.000Z,277.27
2022-10-03T06:03:44.000Z,277.34
2022-10-03T06:05:11.000Z,277.4
2022-10-03T06:07:17.000Z,277.46
2022-10-03T06:10:08.000Z,277.46
2022-10-03T06:11:35.000Z,277.46
2022-10-03T06:13:41.000Z,277.46
2022-10-03T06:15:08.000Z,277.52
2022-10-03T06:17:14.000Z,277.52
2022-10-03T06:18:41.000Z,277.52
2022-10-03T06:20:47.000Z,277.59
2022-10-03T06:22:13.000Z,277.71
2022-10-03T06:24:19.000Z,277.77
2022-10-03T06:25:46.000Z,277.84
2022-10-03T06:27:52.000Z,277.84
2022-10-03T06:29:19.000Z,277.9
2022-10-03T06:31:25.000Z,277.9
2022-10-03T06:32:56.000Z,278.02
2022-10-03T06:35:02.000Z,278.09
2022-10-03T06:36:29.000Z,278.15
2022-10-03T06:38:35.000Z,278.15
2022-10-03T06:40:02.000Z,278.15
2022-10-03T06:42:14.000Z,278.21
2022-10-03T06:43:40.000Z,278.21
2022-10-03T06:45:46.000Z,278.27
2022-10-03T06:48:37.000Z,278.27
2022-10-03T06:50:04.000Z,278.34
2022-10-03T06:52:10.000Z,278.4
2022-10-03T06:53:37.000Z,278.46
2022-10-03T06:55:43.000Z,278.59
2022-10-03T06:57:09.000Z,278.65
2022-10-03T06:59:15.000Z,278.65
2022-10-03T07:00:42.000Z,278.77
2022-10-03T07:02:48.000Z,278.84
2022-10-03T07:04:15.000Z,278.84
2022-10-03T07:06:21.000Z,278.9
2022-10-03T07:07:47.000Z,278.96
2022-10-03T07:09:53.000Z,278.96
2022-10-03T07:11:20.000Z,279.02
2022-10-03T07:13:26.000Z,279.02
2022-10-03T07:14:52.000Z,279.02
2022-10-03T07:16:59.000Z,279.02
2022-10-03T07:18:25.000Z,279.02
2022-10-03T07:20:31.000Z,279.02
2022-10-03T07:21:58.000Z,279.02
2022-10-03T07:24:04.000Z,279.09
2022-10-03T07:26:55.000Z,279.15
2022-10-03T07:28:22.000Z,279.21
2022-10-03T07:30:28.000Z,279.34
2022-10-03T07:31:55.000Z,279.27
2022-10-03T07:34:01.000Z,279.27
2022-10-03T07:35:27.000Z,279.27
2022-10-03T07:37:33.000Z,279.34
2022-10-03T07:39:00.000Z,279.4
2022-10-03T07:41:06.000Z,279.46
2022-10-03T07:42:32.000Z,279.59
2022-10-03T07:44:38.000Z,279.59
2022-10-03T07:46:05.000Z,279.71
2022-10-03T07:48:11.000Z,279.71
2022-10-03T07:49:38.000Z,279.84
2022-10-03T07:51:44.000Z,279.84
2022-10-03T07:53:10.000Z,279.84
2022-10-03T07:55:16.000Z,279.9
2022-10-03T07:56:43.000Z,279.9
2022-10-03T07:58:49.000Z,279.96
2022-10-03T08:00:16.000Z,280.15
2022-10-03T08:02:22.000Z,280.34
2022-10-03T08:05:13.000Z,280.46
2022-10-03T08:06:39.000Z,280.52
2022-10-03T08:08:45.000Z,280.71
2022-10-03T08:10:12.000Z,280.9
2022-10-03T08:12:18.000Z,280.9
2022-10-03T08:13:44.000Z,280.96
2022-10-03T08:15:50.000Z,281.02
2022-10-03T08:17:17.000Z,281.02
2022-10-03T08:19:23.000Z,281.09
2022-10-03T08:20:49.000Z,281.21
2022-10-03T08:22:56.000Z,281.27
2022-10-03T08:24:22.000Z,281.34
2022-10-03T08:26:28.000Z,281.46
2022-10-03T08:27:55.000Z,281.52
2022-10-03T08:30:01.000Z,281.59
2022-10-03T08:31:27.000Z,281.65
2022-10-03T08:33:34.000Z,281.71
2022-10-03T08:35:00.000Z,281.77
2022-10-03T08:37:06.000Z,281.84
2022-10-03T08:38:33.000Z,281.9
2022-10-03T08:40:39.000Z,281.96
2022-10-03T08:43:30.000Z,282.15
2022-10-03T08:44:56.000Z,282.21
2022-10-03T08:47:03.000Z,282.27
2022-10-03T08:48:29.000Z,282.34
2022-10-03T08:50:35.000Z,282.4
2022-10-03T08:52:02.000Z,282.4
2022-10-03T08:54:08.000Z,282.52
2022-10-03T08:55:34.000Z,282.52
2022-10-03T08:57:40.000Z,282.65
2022-10-03T08:59:07.000Z,282.65
2022-10-03T09:01:13.000Z,282.71
2022-10-03T09:02:40.000Z,282.77
2022-10-03T09:04:46.000Z,282.9
2022-10-03T09:06:12.000Z,283.02
2022-10-03T09:08:18.000Z,283.4
2022-10-03T09:09:45.000Z,283.65
2022-10-03T09:11:51.000Z,283.77
2022-10-03T09:13:17.000Z,283.9
2022-10-03T09:15:24.000Z,283.96
2022-10-03T09:16:50.000Z,284.09
2022-10-03T09:18:56.000Z,284.15
2022-10-03T09:21:48.000Z,284.27
2022-10-03T09:23:14.000Z,284.34
2022-10-03T09:25:20.000Z,284.52
2022-10-03T09:26:47.000Z,284.52
2022-10-03T09:28:53.000Z,284.52
2022-10-03T09:30:19.000Z,284.71
2022-10-03T09:32:25.000Z,284.71
2022-10-03T09:33:52.000Z,284.71
2022-10-03T09:35:58.000Z,284.77
2022-10-03T09:37:24.000Z,284.77
2022-10-03T09:39:31.000Z,284.84
2022-10-03T09:40:57.000Z,284.84
2022-10-03T09:43:03.000Z,284.9
2022-10-03T09:44:30.000Z,284.96
2022-10-03T09:46:36.000Z,285.09
2022-10-03T09:48:07.000Z,285.09
2022-10-03T09:50:13.000Z,285.09
2022-10-03T09:51:39.000Z,285.09
2022-10-03T09:53:46.000Z,285.15
2022-10-03T09:55:13.000Z,285.21
2022-10-03T09:57:19.000Z,285.27
2022-10-03T10:00:12.000Z,285.21
2022-10-03T10:01:38.000Z,285.21
2022-10-03T10:03:45.000Z,285.34
2022-10-03T10:05:12.000Z,285.34
2022-10-03T10:07:18.000Z,285.4
2022-10-03T10:08:44.000Z,285.4
2022-10-03T10:10:50.000Z,285.46
2022-10-03T10:12:17.000Z,285.52
2022-10-03T10:14:23.000Z,285.52
2022-10-03T10:15:49.000Z,285.52
2022-10-03T10:17:56.000Z,285.59
2022-10-03T10:19:22.000Z,285.59
2022-10-03T10:21:28.000Z,285.71
2022-10-03T10:22:55.000Z,285.77
2022-10-03T10:25:01.000Z,285.71
2022-10-03T10:26:27.000Z,285.71
2022-10-03T10:28:34.000Z,285.65
2022-10-03T10:30:00.000Z,285.65
2022-10-03T10:32:06.000Z,285.65
2022-10-03T10:33:33.000Z,285.65
2022-10-03T10:35:39.000Z,285.65
2022-10-03T10:38:30.000Z,285.65
2022-10-03T10:39:56.000Z,285.71
2022-10-03T10:42:03.000Z,285.71
2022-10-03T10:43:29.000Z,285.77
2022-10-03T10:45:35.000Z,285.71
2022-10-03T10:47:02.000Z,285.65
2022-10-03T10:49:08.000Z,285.71
2022-10-03T10:50:34.000Z,285.77
2022-10-03T10:52:40.000Z,285.84
2022-10-03T10:54:07.000Z,285.9
2022-10-03T10:56:13.000Z,285.96
2022-10-03T10:57:39.000Z,286.09
2022-10-03T10:59:46.000Z,286.15
2022-10-03T11:01:12.000Z,286.09
2022-10-03T11:03:19.000Z,286.15
2022-10-03T11:04:45.000Z,286.15
2022-10-03T11:06:51.000Z,286.09
2022-10-03T11:08:18.000Z,286.09
2022-10-03T11:10:24.000Z,286.02
2022-10-03T11:11:51.000Z,286.09
2022-10-03T11:13:57.000Z,286.15
2022-10-03T11:16:48.000Z,286.15
2022-10-03T11:18:15.000Z,286.21
2022-10-03T11:20:21.000Z,286.27
2022-10-03T11:21:47.000Z,286.34
2022-10-03T11:23:53.000Z,286.34
2022-10-03T11:25:20.000Z,286.34
2022-10-03T11:27:26.000Z,286.34
2022-10-03T11:28:52.000Z,286.4
2022-10-03T11:30:59.000Z,286.4
2022-10-03T11:32:25.000Z,286.4
2022-10-03T11:34:31.000Z,286.34
2022-10-03T11:35:58.000Z,286.4
2022-10-03T11:38:04.000Z,286.46
2022-10-03T11:39:30.000Z,286.46
2022-10-03T11:41:37.000Z,286.4
2022-10-03T11:43:03.000Z,286.4
2022-10-03T11:45:09.000Z,286.4
2022-10-03T11:46:36.000Z,286.46
2022-10-03T11:48:42.000Z,286.52
2022-10-03T11:50:09.000Z,286.52
2022-10-03T11:52:15.000Z,286.46
2022-10-03T11:55:06.000Z,286.46
2022-10-03T11:56:33.000Z,286.46
2022-10-03T11:58:39.000Z,286.52
2022-10-03T12:00:06.000Z,286.59
2022-10-03T12:02:12.000Z,286.52
2022-10-03T12:03:38.000Z,286.52
2022-10-03T12:05:44.000Z,286.46
2022-10-03T12:07:11.000Z,286.46
2022-10-03T12:09:21.000Z,286.46
2022-10-03T12:10:47.000Z,286.4
2022-10-03T12:12:54.000Z,286.4
2022-10-03T12:14:20.000Z,286.4
2022-10-03T12:16:26.000Z,286.4
2022-10-03T12:17:53.000Z,286.46
2022-10-03T12:19:59.000Z,286.4
2022-10-03T12:21:25.000Z,286.4
2022-10-03T12:23:31.000Z,286.46
2022-10-03T12:24:58.000Z,286.52
2022-10-03T12:27:04.000Z,286.59
2022-10-03T12:28:30.000Z,286.65
2022-10-03T12:30:37.000Z,286.77
2022-10-03T12:33:28.000Z,287.02
2022-10-03T12:34:54.000Z,287.02
2022-10-03T12:37:00.000Z,286.96
2022-10-03T12:38:27.000Z,286.96
2022-10-03T12:40:33.000Z,287.02
2022-10-03T12:41:59.000Z,287.02
2022-10-03T12:44:06.000Z,286.96
2022-10-03T12:45:32.000Z,286.96
2022-10-03T12:47:38.000Z,287.02
2022-10-03T12:49:20.000Z,287.09
2022-10-03T12:51:26.000Z,287.15
2022-10-03T12:52:53.000Z,287.21
2022-10-03T12:54:59.000Z,287.27
2022-10-03T12:56:25.000Z,287.27
2022-10-03T12:58:31.000Z,287.34
2022-10-03T12:59:58.000Z,287.4
2022-10-03T13:02:04.000Z,287.4
2022-10-03T13:03:31.000Z,287.4
2022-10-03T13:05:37.000Z,287.27
2022-10-03T13:07:03.000Z,287.27
2022-10-03T13:09:09.000Z,287.27
2022-10-03T13:12:01.000Z,287.21
2022-10-03T13:13:27.000Z,287.15
2022-10-03T13:15:34.000Z,287.21
2022-10-03T13:17:00.000Z,287.15
2022-10-03T13:19:06.000Z,287.09
2022-10-03T13:20:33.000Z,287.09
2022-10-03T13:22:39.000Z,287.09
2022-10-03T13:24:05.000Z,287.09
2022-10-03T13:26:12.000Z,287.09
2022-10-03T13:27:42.000Z,287.09
2022-10-03T13:29:49.000Z,287.09
2022-10-03T13:31:15.000Z,287.09
2022-10-03T13:33:21.000Z,287.09
2022-10-03T13:34:48.000Z,287.09
2022-10-03T13:36:54.000Z,287.09
2022-10-03T13:38:21.000Z,287.09
2022-10-03T13:40:27.000Z,287.02
2022-10-03T13:41:53.000Z,287.02
2022-10-03T13:43:59.000Z,287.09
2022-10-03T13:45:26.000Z,287.09
2022-10-03T13:47:32.000Z,287.15
2022-10-03T13:50:23.000Z,287.15
2022-10-03T13:51:50.000Z,287.15
2022-10-03T13:53:56.000Z,287.15
2022-10-03T13:55:22.000Z,287.15
2022-10-03T13:57:28.000Z,287.15
2022-10-03T13:58:55.000Z,287.15
2022-10-03T14:01:01.000Z,287.15
2022-10-03T14:02:28.000Z,287.15
2022-10-03T14:04:34.000Z,287.15
2022-10-03T14:06:00.000Z,287.09
2022-10-03T14:08:06.000Z,287.09
2022-10-03T14:09:33.000Z,287.09
2022-10-03T14:11:39.000Z,287.09
2022-10-03T14:13:06.000Z,287.09
2022-10-03T14:15:12.000Z,287.09
2022-10-03T14:16:39.000Z,287.09
2022-10-03T14:18:45.000Z,287.15
2022-10-03T14:20:11.000Z,287.21
2022-10-03T14:22:18.000Z,287.21
2022-10-03T14:23:44.000Z,287.21
2022-10-03T14:25:50.000Z,287.21
2022-10-03T14:28:42.000Z,287.27
2022-10-03T14:30:08.000Z,287.27
2022-10-03T14:32:14.000Z,287.27
2022-10-03T14:34:11.000Z,287.27
2022-10-03T14:36:17.000Z,287.34
2022-10-03T14:37:43.000Z,287.27
2022-10-03T14:39:49.000Z,287.21
2022-10-03T14:41:23.000Z,287.21
2022-10-03T14:43:29.000Z,287.15
2022-10-03T14:44:55.000Z,287.15
2022-10-03T14:47:01.000Z,287.15
2022-10-03T14:48:28.000Z,287.15
2022-10-03T14:50:34.000Z,287.09
2022-10-03T14:52:00.000Z,287.15
2022-10-03T14:54:07.000Z,287.15
2022-10-03T14:55:33.000Z,287.15
2022-10-03T14:57:39.000Z,287.15
2022-10-03T14:59:33.000Z,287.09
2022-10-03T15:01:39.000Z,287.09
2022-10-03T15:03:06.000Z,287.02
2022-10-03T15:05:13.000Z,286.96
2022-10-03T15:08:04.000Z,286.96
2022-10-03T15:09:30.000Z,286.9
2022-10-03T15:11:36.000Z,286.9
2022-10-03T15:13:03.000Z,286.84
2022-10-03T15:15:09.000Z,286.77
2022-10-03T15:16:36.000Z,286.77
2022-10-03T15:18:42.000Z,286.71
2022-10-03T15:20:08.000Z,286.71
2022-10-03T15:22:14.000Z,286.71
2022-10-03T15:23:41.000Z,286.65
2022-10-03T15:25:47.000Z,286.65
2022-10-03T15:27:13.000Z,286.65
2022-10-03T15:29:20.000Z,286.59
2022-10-03T15:30:46.000Z,286.52
2022-10-03T15:32:52.000Z,286.52
2022-10-03T15:34:19.000Z,286.46
2022-10-03T15:36:25.000Z,286.46
2022-10-03T15:37:51.000Z,286.4
2022-10-03T15:39:57.000Z,286.4
2022-10-03T15:41:24.000Z,286.34
2022-10-03T15:43:30.000Z,286.34
2022-10-03T15:46:22.000Z,286.27
2022-10-03T15:47:48.000Z,286.27
2022-10-03T15:49:54.000Z,286.21
2022-10-03T15:51:21.000Z,286.15
2022-10-03T15:53:27.000Z,286.21
2022-10-03T15:55:01.000Z,286.21
2022-10-03T15:57:16.000Z,286.15
2022-10-03T15:58:42.000Z,286.15
2022-10-03T16:00:48.000Z,286.15
2022-10-03T16:02:15.000Z,286.09
2022-10-03T16:04:21.000Z,286.09
2022-10-03T16:05:47.000Z,286.09
2022-10-03T16:07:54.000Z,286.09
2022-10-03T16:09:20.000Z,286.09
2022-10-03T16:11:26.000Z,286.02
2022-10-03T16:12:53.000Z,286.02
2022-10-03T16:14:59.000Z,286.02
2022-10-03T16:16:25.000Z,285.96
2022-10-03T16:18:31.000Z,285.96
2022-10-03T16:19:58.000Z,285.96
2022-10-03T16:22:04.000Z,285.9
2022-10-03T16:24:55.000Z,285.9
2022-10-03T16:26:21.000Z,285.84
2022-10-03T16:28:28.000Z,285.84
2022-10-03T16:29:54.000Z,285.84
2022-10-03T16:32:00.000Z,285.77
2022-10-03T16:33:27.000Z,285.77
2022-10-03T16:35:33.000Z,285.71
2022-10-03T16:37:00.000Z,285.71
2022-10-03T16:39:06.000Z,285.65
2022-10-03T16:40:32.000Z,285.65
2022-10-03T16:42:38.000Z,285.59
2022-10-03T16:44:05.000Z,285.59
2022-10-03T16:46:11.000Z,285.52
2022-10-03T16:47:38.000Z,285.52
2022-10-03T16:49:44.000Z,285.52
2022-10-03T16:51:10.000Z,285.52
2022-10-03T16:53:16.000Z,285.46
2022-10-03T16:54:43.000Z,285.46
2022-10-03T16:56:49.000Z,285.46
2022-10-03T16:58:15.000Z,285.4
2022-10-03T17:00:22.000Z,285.27
2022-10-03T17:03:13.000Z,285.27
2022-10-03T17:04:39.000Z,285.27
2022-10-03T17:06:46.000Z,285.34
2022-10-03T17:08:12.000Z,285.34
2022-10-03T17:10:45.000Z,285.34
2022-10-03T17:12:11.000Z,285.27
2022-10-03T17:14:17.000Z,285.27
2022-10-03T17:15:44.000Z,285.21
2022-10-03T17:17:50.000Z,285.15
2022-10-03T17:19:16.000Z,285.21
2022-10-03T17:21:22.000Z,285.15
2022-10-03T17:22:49.000Z,285.21
2022-10-03T17:24:55.000Z,285.27
2022-10-03T17:26:22.000Z,285.15
2022-10-03T17:28:28.000Z,285.09
2022-10-03T17:29:54.000Z,285.09
2022-10-03T17:32:00.000Z,285.09
2022-10-03T17:33:27.000Z,285.09
2022-10-03T17:35:33.000Z,285.09
2022-10-03T17:37:00.000Z,285.09
2022-10-03T17:39:06.000Z,285.02
2022-10-03T17:41:57.000Z,285.02
2022-10-03T17:43:24.000Z,285.02
2022-10-03T17:45:30.000Z,284.96
2022-10-03T17:46:56.000Z,284.96
2022-10-03T17:49:02.000Z,284.96
2022-10-03T17:50:29.000Z,284.96
2022-10-03T17:52:35.000Z,284.96
2022-10-03T17:54:01.000Z,284.9
2022-10-03T17:56:08.000Z,284.77
2022-10-03T17:57:34.000Z,284.71
2022-10-03T17:59:40.000Z,284.71
2022-10-03T18:01:07.000Z,284.65
2022-10-03T18:03:13.000Z,284.71
2022-10-03T18:04:39.000Z,284.65
2022-10-03T18:06:45.000Z,284.65
2022-10-03T18:08:12.000Z,284.65
2022-10-03T18:10:18.000Z,284.52
2022-10-03T18:11:45.000Z,284.59
2022-10-03T18:13:51.000Z,284.52
2022-10-03T18:15:17.000Z,284.52
2022-10-03T18:17:23.000Z,284.52
2022-10-03T18:20:14.000Z,284.59
2022-10-03T18:21:41.000Z,284.59
2022-10-03T18:23:47.000Z,284.59
2022-10-03T18:25:20.000Z,284.59
2022-10-03T18:27:26.000Z,284.52
2022-10-03T18:28:52.000Z,284.46
2022-10-03T18:30:58.000Z,284.46
2022-10-03T18:32:25.000Z,284.46
2022-10-03T18:34:31.000Z,284.46
2022-10-03T18:35:58.000Z,284.46
2022-10-03T18:38:04.000Z,284.46
2022-10-03T18:39:30.000Z,284.46
2022-10-03T18:41:36.000Z,284.4
2022-10-03T18:43:03.000Z,284.46
2022-10-03T18:45:09.000Z,284.4
2022-10-03T18:46:36.000Z,284.4
2022-10-03T18:48:42.000Z,284.34
2022-10-03T18:50:09.000Z,284.34
2022-10-03T18:52:15.000Z,284.27
2022-10-03T18:53:41.000Z,284.27
2022-10-03T18:55:47.000Z,284.27
2022-10-03T18:58:38.000Z,284.27
2022-10-03T19:00:05.000Z,284.21
2022-10-03T19:02:11.000Z,284.15
2022-10-03T19:03:38.000Z,284.15
2022-10-03T19:05:44.000Z,284.15
2022-10-03T19:07:10.000Z,284.15
2022-10-03T19:09:16.000Z,284.15
2022-10-03T19:10:43.000Z,284.09
2022-10-03T19:12:49.000Z,284.02
2022-10-03T19:14:15.000Z,284.09
2022-10-03T19:16:22.000Z,284.02
2022-10-03T19:17:48.000Z,284.02
2022-10-03T19:19:54.000Z,283.9
2022-10-03T19:21:23.000Z,283.96
2022-10-03T19:23:29.000Z,283.96
2022-10-03T19:24:56.000Z,283.96
2022-10-03T19:27:03.000Z,284.02
2022-10-03T19:28:29.000Z,283.96
2022-10-03T19:30:36.000Z,283.96
2022-10-03T19:32:02.000Z,283.96
2022-10-03T19:34:09.000Z,283.96
2022-10-03T19:37:00.000Z,283.77
2022-10-03T19:38:26.000Z,283.77
2022-10-03T19:40:32.000Z,283.71
2022-10-03T19:41:59.000Z,283.65
2022-10-03T19:44:05.000Z,283.59
2022-10-03T19:45:31.000Z,283.52
2022-10-03T19:47:38.000Z,283.52
2022-10-03T19:49:04.000Z,283.52
2022-10-03T19:51:10.000Z,283.4
2022-10-03T19:52:45.000Z,283.27
2022-10-03T19:56:23.000Z,283.02
2022-10-03T19:56:57.000Z,283.02
2022-10-03T19:58:24.000Z,283.02
2022-10-03T20:00:30.000Z,282.9
2022-10-03T20:01:56.000Z,282.9
2022-10-03T20:04:03.000Z,282.96
2022-10-03T20:05:29.000Z,283.09
2022-10-03T20:07:35.000Z,283.09
2022-10-03T20:09:02.000Z,282.96
2022-10-03T20:11:08.000Z,282.71
2022-10-03T20:12:34.000Z,282.65
2022-10-03T20:14:46.000Z,282.59
2022-10-03T20:17:31.000Z,282.46
2022-10-03T20:18:58.000Z,282.46
2022-10-03T20:21:04.000Z,282.4
2022-10-03T20:22:31.000Z,282.46
2022-10-03T20:24:37.000Z,282.4
2022-10-03T20:26:03.000Z,282.34
2022-10-03T20:28:13.000Z,282.27
2022-10-03T20:29:40.000Z,282.27
2022-10-03T20:31:46.000Z,282.27
2022-10-03T20:33:13.000Z,282.27
2022-10-03T20:35:19.000Z,282.27
2022-10-03T20:36:45.000Z,282.34
2022-10-03T20:38:51.000Z,282.15
2022-10-03T20:40:18.000Z,282.09
2022-10-03T20:42:24.000Z,281.9
2022-10-03T20:43:51.000Z,281.9
2022-10-03T20:45:57.000Z,281.84
2022-10-03T20:47:23.000Z,281.71
2022-10-03T20:49:29.000Z,281.71
2022-10-03T20:50:56.000Z,281.65
2022-10-03T20:53:02.000Z,281.59
2022-10-03T20:55:54.000Z,281.4
2022-10-03T20:57:20.000Z,281.4
2022-10-03T20:59:26.000Z,281.34
2022-10-03T21:00:53.000Z,281.34
2022-10-03T21:02:59.000Z,281.27
2022-10-03T21:04:25.000Z,281.27
2022-10-03T21:06:31.000Z,281.21
2022-10-03T21:07:58.000Z,281.15
2022-10-03T21:10:04.000Z,281.09
2022-10-03T21:11:30.000Z,281.09
2022-10-03T21:13:37.000Z,281.15
2022-10-03T21:15:03.000Z,281.09
2022-10-03T21:17:09.000Z,281.09
2022-10-03T21:18:36.000Z,281.15
2022-10-03T21:20:42.000Z,281.09
2022-10-03T21:22:08.000Z,281.09
2022-10-03T21:24:15.000Z,280.96
2022-10-03T21:25:41.000Z,280.9
2022-10-03T21:27:47.000Z,280.84
2022-10-03T21:29:14.000Z,280.84
2022-10-03T21:31:20.000Z,280.77
2022-10-03T21:34:11.000Z,280.59
2022-10-03T21:35:38.000Z,280.59
2022-10-03T21:37:44.000Z,280.52
2022-10-03T21:39:10.000Z,280.52
2022-10-03T21:41:16.000Z,280.46
2022-10-03T21:42:43.000Z,280.46
2022-10-03T21:44:49.000Z,280.34
2022-10-03T21:46:16.000Z,280.34
2022-10-03T21:48:22.000Z,280.27
2022-10-03T21:49:48.000Z,280.34
2022-10-03T21:51:55.000Z,280.27
2022-10-03T21:53:21.000Z,280.27
2022-10-03T21:55:27.000Z,280.27
2022-10-03T21:57:16.000Z,280.21
2022-10-03T21:59:22.000Z,280.15
2022-10-03T22:00:48.000Z,280.15
2022-10-03T22:02:54.000Z,280.15
2022-10-03T22:04:21.000Z,280.15
2022-10-03T22:06:27.000Z,280.09
2022-10-03T22:07:53.000Z,280.09
2022-10-03T22:10:00.000Z,280.09
2022-10-03T22:12:51.000Z,280.02
2022-10-03T22:14:17.000Z,279.96
2022-10-03T22:16:23.000Z,279.9
2022-10-03T22:17:50.000Z,279.9
2022-10-03T22:19:56.000Z,279.9
2022-10-03T22:21:23.000Z,279.9
2022-10-03T22:23:29.000Z,279.9
2022-10-03T22:24:55.000Z,279.9
2022-10-03T22:27:01.000Z,279.84
2022-10-03T22:28:28.000Z,279.84
2022-10-03T22:30:34.000Z,279.77
2022-10-03T22:32:01.000Z,279.77
2022-10-03T22:34:07.000Z,279.84
2022-10-03T22:35:33.000Z,279.84
2022-10-03T22:37:39.000Z,279.77
2022-10-03T22:39:06.000Z,279.84
2022-10-03T22:41:12.000Z,279.84
2022-10-03T22:42:38.000Z,279.84
2022-10-03T22:44:45.000Z,279.71
2022-10-03T22:46:11.000Z,279.65
2022-10-03T22:48:17.000Z,279.65
2022-10-03T22:51:08.000Z,279.52
2022-10-03T22:52:35.000Z,279.59
2022-10-03T22:54:41.000Z,279.52